Time;durP1;ratioP1;P1;durP2;ratioP2;P2;SDS_P1;SDS_P2;PMS_P1;PMS_P2;Temp;Humidity;BMP_temperature;BMP_pressure;BME280_temperature;BME280_humidity;BME280_pressure;Samples;Min_cycle;Max_cycle;Signal;HPM_P1;HPM_P2
2022/12/02 00:01:10;;;;;;;13.98;8.23;;;;;;;;;;5061305;28;20061;-75
2022/12/02 00:03:56;;;;;;;10.13;5.40;;;;;;;;;;5061323;28;20060;-75
2022/12/02 00:06:41;;;;;;;7.53;5.38;;;;;;;;;;5054540;28;20041;-75
2022/12/02 00:09:33;;;;;;;10.35;6.22;;;;;;;;;;5054961;28;20049;-74
2022/12/02 00:12:23;;;;;;;7.85;5.43;;;;;;;;;;5061481;28;20136;-75
2022/12/02 00:15:35;;;;;;;8.43;4.60;;;;;;;;;;5060997;28;20049;-74
2022/12/02 00:18:20;;;;;;;7.95;4.85;;;;;;;;;;5054466;28;20056;-76
2022/12/02 00:21:06;;;;;;;8.05;5.10;;;;;;;;;;5061106;28;20056;-75
2022/12/02 00:23:51;;;;;;;8.85;4.68;;;;;;;;;;5054589;28;20048;-74
2022/12/02 00:26:36;;;;;;;10.73;6.35;;;;;;;;;;5061048;28;20049;-76
2022/12/02 00:29:21;;;;;;;7.32;4.68;;;;;;;;;;5045808;28;20045;-75
2022/12/02 00:32:07;;;;;;;10.82;5.22;;;;;;;;;;5054176;28;20041;-74
2022/12/02 00:34:53;;;;;;;9.88;6.15;;;;;;;;;;5053980;28;20044;-75
2022/12/02 00:37:38;;;;;;;17.48;8.57;;;;;;;;;;5060994;28;20466;-76
2022/12/02 00:40:23;;;;;;;9.70;5.32;;;;;;;;;;5053996;28;20041;-76
2022/12/02 00:46:31;;;;;;;8.75;5.30;;;;;;;;;;5053635;28;20045;-74
2022/12/02 00:49:17;;;;;;;7.93;4.80;;;;;;;;;;5053689;28;20045;-74
2022/12/02 00:52:03;;;;;;;6.05;3.60;;;;;;;;;;5054129;28;20486;-75
2022/12/02 00:54:49;;;;;;;7.72;4.68;;;;;;;;;;5045517;28;20045;-76
2022/12/02 00:57:34;;;;;;;8.48;5.00;;;;;;;;;;5055594;28;20048;-76
2022/12/02 01:00:20;;;;;;;6.43;4.28;;;;;;;;;;5057519;28;20041;-76
2022/12/02 01:03:06;;;;;;;5.68;3.80;;;;;;;;;;5055509;28;20057;-77
2022/12/02 01:05:51;;;;;;;14.45;7.82;;;;;;;;;;5074776;28;20040;-76
2022/12/02 01:08:37;;;;;;;6.32;4.20;;;;;;;;;;5053929;28;20045;-74
2022/12/02 01:11:22;;;;;;;6.88;4.50;;;;;;;;;;5060138;28;20041;-74
2022/12/02 01:14:08;;;;;;;7.35;4.57;;;;;;;;;;5053472;28;20037;-75
2022/12/02 01:16:53;;;;;;;5.10;3.78;;;;;;;;;;5053910;28;20044;-75
2022/12/02 01:19:41;;;;;;;6.65;3.75;;;;;;;;;;5053603;28;20037;-75
2022/12/02 01:22:27;;;;;;;4.95;3.45;;;;;;;;;;5053666;28;20390;-76
2022/12/02 01:25:12;;;;;;;4.28;3.25;;;;;;;;;;5053146;28;20045;-74
2022/12/02 01:27:58;;;;;;;3.97;3.17;;;;;;;;;;5053844;28;20037;-74
2022/12/02 01:30:44;;;;;;;6.25;4.32;;;;;;;;;;5044967;28;20049;-75
2022/12/02 01:33:29;;;;;;;8.10;3.85;;;;;;;;;;5053462;28;20041;-75
2022/12/02 01:36:14;;;;;;;4.13;3.15;;;;;;;;;;5053786;28;20417;-76
2022/12/02 01:39:00;;;;;;;6.28;4.60;;;;;;;;;;5053393;28;20041;-75
2022/12/02 01:41:46;;;;;;;6.88;4.32;;;;;;;;;;5053832;28;20049;-75
2022/12/02 01:44:32;;;;;;;8.27;4.80;;;;;;;;;;5053172;28;20044;-75
2022/12/02 01:47:17;;;;;;;7.18;5.15;;;;;;;;;;5044962;28;20041;-74
2022/12/02 01:50:05;;;;;;;5.45;3.70;;;;;;;;;;5053524;28;20045;-74
2022/12/02 01:52:50;;;;;;;7.57;5.30;;;;;;;;;;5053100;28;20045;-74
2022/12/02 01:55:36;;;;;;;3.58;2.55;;;;;;;;;;5053162;28;20499;-76
2022/12/02 01:58:26;;;;;;;5.68;3.53;;;;;;;;;;5053245;28;20498;-76
2022/12/02 02:01:41;;;;;;;6.70;4.30;;;;;;;;;;5044874;28;20049;-75
2022/12/02 02:04:27;;;;;;;7.15;4.45;;;;;;;;;;5044974;28;20041;-76
2022/12/02 02:07:12;;;;;;;7.03;4.38;;;;;;;;;;5053710;28;20037;-76
2022/12/02 02:09:58;;;;;;;5.07;2.97;;;;;;;;;;5048502;28;20045;-75
2022/12/02 02:12:46;;;;;;;5.80;3.70;;;;;;;;;;5048582;28;20037;-74
2022/12/02 02:15:32;;;;;;;7.55;4.15;;;;;;;;;;5048328;28;20397;-75
2022/12/02 02:18:17;;;;;;;5.70;4.00;;;;;;;;;;5056709;28;20037;-75
2022/12/02 02:21:02;;;;;;;7.13;3.47;;;;;;;;;;5056595;28;20502;-75
2022/12/02 02:23:47;;;;;;;5.57;3.55;;;;;;;;;;5063265;28;20048;-75
2022/12/02 02:26:33;;;;;;;7.45;4.68;;;;;;;;;;5047798;28;20044;-75
2022/12/02 02:29:19;;;;;;;9.00;4.40;;;;;;;;;;5056723;28;20041;-76
2022/12/02 02:32:06;;;;;;;6.55;3.88;;;;;;;;;;5048246;28;20414;-76
2022/12/02 02:34:53;;;;;;;6.53;4.13;;;;;;;;;;5048194;28;20053;-74
2022/12/02 02:37:39;;;;;;;6.45;4.00;;;;;;;;;;5056463;28;20045;-76
2022/12/02 02:40:26;;;;;;;7.03;4.00;;;;;;;;;;5048125;28;20045;-76
2022/12/02 02:43:16;;;;;;;6.00;4.47;;;;;;;;;;5044467;28;20045;-75
2022/12/02 02:46:03;;;;;;;5.32;3.42;;;;;;;;;;5047515;28;20057;-76
2022/12/02 02:48:54;;;;;;;7.97;5.10;;;;;;;;;;5047747;28;20394;-76
2022/12/02 02:51:39;;;;;;;6.20;4.30;;;;;;;;;;5062692;28;20045;-76
2022/12/02 02:54:26;;;;;;;5.00;3.97;;;;;;;;;;5047547;28;20053;-75
2022/12/02 02:57:12;;;;;;;6.97;4.90;;;;;;;;;;5047728;28;20052;-75
2022/12/02 02:59:57;;;;;;;5.75;4.07;;;;;;;;;;5047475;28;20398;-76
2022/12/02 03:02:45;;;;;;;6.00;4.35;;;;;;;;;;5033585;28;20045;-75
2022/12/02 03:05:31;;;;;;;5.95;4.10;;;;;;;;;;5047874;28;20045;-76
2022/12/02 03:08:16;;;;;;;6.97;4.60;;;;;;;;;;5042104;28;20052;-75
2022/12/02 03:11:02;;;;;;;5.88;4.28;;;;;;;;;;5055753;28;20479;-76
2022/12/02 03:13:49;;;;;;;6.85;4.70;;;;;;;;;;5062622;28;20041;-75
2022/12/02 03:16:35;;;;;;;8.77;6.30;;;;;;;;;;5055665;28;20041;-75
2022/12/02 03:19:20;;;;;;;7.90;4.35;;;;;;;;;;5056719;28;20041;-75
2022/12/02 03:22:06;;;;;;;9.20;5.90;;;;;;;;;;5082424;28;20490;-75
2022/12/02 03:24:52;;;;;;;9.20;5.25;;;;;;;;;;5055675;28;20049;-76
2022/12/02 03:27:37;;;;;;;9.25;5.47;;;;;;;;;;5062088;28;20037;-76
2022/12/02 03:30:24;;;;;;;8.40;4.63;;;;;;;;;;5055540;28;20044;-75
2022/12/02 03:33:09;;;;;;;6.18;4.20;;;;;;;;;;5062318;28;20045;-76
2022/12/02 03:35:55;;;;;;;7.38;4.32;;;;;;;;;;5062026;28;20056;-75
2022/12/02 03:38:41;;;;;;;6.25;4.35;;;;;;;;;;5055330;28;20045;-76
2022/12/02 03:41:27;;;;;;;7.53;4.63;;;;;;;;;;5055386;28;20041;-76
2022/12/02 03:44:14;;;;;;;5.90;4.22;;;;;;;;;;5055421;28;20049;-75
2022/12/02 03:47:01;;;;;;;6.45;4.00;;;;;;;;;;5054828;28;20045;-74
2022/12/02 03:49:46;;;;;;;6.43;3.83;;;;;;;;;;5054920;28;20045;-76
2022/12/02 03:52:31;;;;;;;6.53;4.07;;;;;;;;;;5056409;28;20045;-77
2022/12/02 03:55:17;;;;;;;5.57;3.42;;;;;;;;;;5054908;28;20037;-76
2022/12/02 03:58:04;;;;;;;3.65;2.92;;;;;;;;;;5054783;28;20041;-75
2022/12/02 04:00:50;;;;;;;8.40;3.67;;;;;;;;;;5055625;28;20045;-76
2022/12/02 04:03:35;;;;;;;4.93;3.42;;;;;;;;;;5061403;28;20044;-75
2022/12/02 04:06:20;;;;;;;4.90;3.22;;;;;;;;;;5061002;28;20490;-76
2022/12/02 04:09:06;;;;;;;5.35;3.33;;;;;;;;;;5054555;28;20053;-76
2022/12/02 04:11:51;;;;;;;4.65;2.88;;;;;;;;;;5054402;28;20088;-76
2022/12/02 04:14:37;;;;;;;3.17;2.38;;;;;;;;;;5054480;28;20044;-74
2022/12/02 04:17:22;;;;;;;5.32;3.28;;;;;;;;;;5054622;28;20044;-75
2022/12/02 04:20:09;;;;;;;4.43;2.60;;;;;;;;;;5054339;28;20041;-75
2022/12/02 04:22:54;;;;;;;6.25;3.35;;;;;;;;;;5061334;28;20048;-75
2022/12/02 04:25:40;;;;;;;3.00;2.42;;;;;;;;;;5054379;28;20049;-75
2022/12/02 04:28:27;;;;;;;5.35;3.67;;;;;;;;;;5054345;28;20053;-76
2022/12/02 04:31:11;;;;;;;7.10;4.05;;;;;;;;;;5053841;28;20390;-75
2022/12/02 04:33:57;;;;;;;6.72;3.90;;;;;;;;;;5060832;28;20041;-76
2022/12/02 04:36:42;;;;;;;6.63;4.38;;;;;;;;;;5054157;28;20044;-76
2022/12/02 04:39:28;;;;;;;5.68;4.07;;;;;;;;;;5060640;28;20045;-74
2022/12/02 04:42:14;;;;;;;5.40;3.70;;;;;;;;;;5060461;28;20041;-74
2022/12/02 04:45:00;;;;;;;5.65;3.90;;;;;;;;;;5053893;28;20045;-77
2022/12/02 04:47:46;;;;;;;5.88;3.95;;;;;;;;;;5045449;28;20049;-74
2022/12/02 04:50:31;;;;;;;6.38;4.10;;;;;;;;;;5053341;28;20045;-76
2022/12/02 04:53:17;;;;;;;7.65;4.88;;;;;;;;;;5053548;28;20040;-75
2022/12/02 04:56:03;;;;;;;6.57;4.10;;;;;;;;;;5054140;28;20049;-75
2022/12/02 04:58:48;;;;;;;11.10;6.30;;;;;;;;;;5060366;28;20045;-75
2022/12/02 05:01:34;;;;;;;9.73;5.85;;;;;;;;;;5060143;28;20053;-76
2022/12/02 05:04:19;;;;;;;7.50;4.72;;;;;;;;;;5060227;28;20037;-74
2022/12/02 05:07:05;;;;;;;7.28;4.72;;;;;;;;;;5053621;28;20045;-75
2022/12/02 05:09:51;;;;;;;7.78;4.63;;;;;;;;;;5053818;28;20049;-75
2022/12/02 05:12:36;;;;;;;5.97;3.65;;;;;;;;;;5054898;28;20048;-75
2022/12/02 05:15:22;;;;;;;6.55;4.50;;;;;;;;;;5059573;28;20037;-76
2022/12/02 05:18:07;;;;;;;5.75;3.80;;;;;;;;;;5053300;28;20494;-76
2022/12/02 05:20:53;;;;;;;5.50;3.80;;;;;;;;;;5053888;28;20045;-75
2022/12/02 05:23:38;;;;;;;7.47;4.82;;;;;;;;;;5060081;28;20140;-77
2022/12/02 05:26:24;;;;;;;5.88;3.65;;;;;;;;;;5059583;28;20049;-76
2022/12/02 05:29:10;;;;;;;9.57;5.32;;;;;;;;;;5053391;28;20045;-75
2022/12/02 05:31:55;;;;;;;8.25;4.22;;;;;;;;;;5058124;28;20041;-75
2022/12/02 05:34:41;;;;;;;7.70;4.60;;;;;;;;;;5067376;28;20025;-76
2022/12/02 05:37:27;;;;;;;9.10;5.00;;;;;;;;;;5065937;28;20518;-75
2022/12/02 05:40:12;;;;;;;5.70;3.63;;;;;;;;;;5053045;28;20045;-76
2022/12/02 05:43:12;;;;;;;8.43;4.55;;;;;;;;;;5059376;28;20044;-76
2022/12/02 05:45:58;;;;;;;8.68;4.38;;;;;;;;;;5057073;28;20033;-74
2022/12/02 05:48:46;;;;;;;7.35;4.35;;;;;;;;;;5057363;28;20049;-76
2022/12/02 05:51:32;;;;;;;8.10;4.93;;;;;;;;;;5048383;28;20057;-75
2022/12/02 05:54:19;;;;;;;13.85;6.45;;;;;;;;;;5056794;28;20044;-76
2022/12/02 05:57:06;;;;;;;11.07;5.63;;;;;;;;;;5056863;28;20057;-76
2022/12/02 06:00:01;;;;;;;10.95;5.13;;;;;;;;;;5057042;28;20045;-76
2022/12/02 06:03:13;;;;;;;27.73;15.60;;;;;;;;;;5063445;28;20037;-76
2022/12/02 06:06:00;;;;;;;24.85;15.88;;;;;;;;;;5056676;28;20037;-75
2022/12/02 06:08:46;;;;;;;8.77;5.35;;;;;;;;;;5056800;28;20049;-75
2022/12/02 06:11:35;;;;;;;10.07;5.43;;;;;;;;;;5056349;28;20044;-75
2022/12/02 06:14:24;;;;;;;5.95;4.10;;;;;;;;;;5047972;28;20048;-74
2022/12/02 06:17:16;;;;;;;13.48;6.50;;;;;;;;;;5047710;28;20482;-74
2022/12/02 06:20:04;;;;;;;11.32;5.80;;;;;;;;;;5056428;28;20041;-74
2022/12/02 06:22:49;;;;;;;12.80;5.63;;;;;;;;;;5056478;28;20390;-76
2022/12/02 06:25:35;;;;;;;9.15;6.05;;;;;;;;;;5054322;28;20040;-76
2022/12/02 06:28:33;;;;;;;22.10;9.20;;;;;;;;;;5056556;28;20064;-75
2022/12/02 06:31:38;;;;;;;9.63;6.00;;;;;;;;;;5047960;28;20045;-75
2022/12/02 06:34:40;;;;;;;9.52;5.63;;;;;;;;;;5056310;28;20053;-77
2022/12/02 06:37:29;;;;;;;8.68;5.57;;;;;;;;;;5063164;28;20052;-74
2022/12/02 06:40:25;;;;;;;33.15;17.08;;;;;;;;;;5055507;28;20041;-75
2022/12/02 06:43:24;;;;;;;8.65;5.90;;;;;;;;;;5055918;28;20402;-76
2022/12/02 06:46:19;;;;;;;11.02;5.55;;;;;;;;;;5055752;28;20041;-76
2022/12/02 06:49:21;;;;;;;11.75;7.22;;;;;;;;;;5062935;28;20044;-75
2022/12/02 06:52:21;;;;;;;11.75;6.90;;;;;;;;;;5057368;28;20044;-75
2022/12/02 06:55:32;;;;;;;10.05;6.65;;;;;;;;;;5054820;28;20037;-74
2022/12/02 06:58:32;;;;;;;9.85;5.93;;;;;;;;;;5047655;28;20049;-74
2022/12/02 07:01:26;;;;;;;13.48;6.93;;;;;;;;;;5055699;28;20489;-74
2022/12/02 07:04:30;;;;;;;21.52;13.07;;;;;;;;;;5062420;28;20498;-76
2022/12/02 07:07:19;;;;;;;15.77;8.90;;;;;;;;;;5055205;28;20041;-75
2022/12/02 07:10:19;;;;;;;10.57;6.32;;;;;;;;;;5055868;28;20278;-76
2022/12/02 07:13:12;;;;;;;15.82;8.02;;;;;;;;;;5062479;28;20052;-76
2022/12/02 07:15:58;;;;;;;13.25;7.00;;;;;;;;;;5055512;28;20056;-76
2022/12/02 07:18:43;;;;;;;11.15;6.13;;;;;;;;;;5055711;28;20412;-76
2022/12/02 07:21:29;;;;;;;15.27;9.30;;;;;;;;;;5055439;28;20486;-76
2022/12/02 07:24:17;;;;;;;10.77;6.25;;;;;;;;;;5062468;28;20040;-76
2022/12/02 07:27:15;;;;;;;15.23;7.68;;;;;;;;;;5040254;28;20490;-76
2022/12/02 07:30:02;;;;;;;21.73;11.20;;;;;;;;;;5061917;28;20037;-74
2022/12/02 07:32:47;;;;;;;10.30;6.50;;;;;;;;;;5055366;28;20045;-76
2022/12/02 07:35:33;;;;;;;10.52;7.03;;;;;;;;;;5055181;28;20045;-76
2022/12/02 07:38:18;;;;;;;13.15;7.93;;;;;;;;;;5054814;28;20040;-76
2022/12/02 07:41:05;;;;;;;14.25;7.82;;;;;;;;;;5054992;28;20049;-74
2022/12/02 07:43:50;;;;;;;22.35;12.38;;;;;;;;;;5054761;28;20052;-75
2022/12/02 07:46:36;;;;;;;29.65;15.23;;;;;;;;;;5060423;28;20045;-75
2022/12/02 07:49:22;;;;;;;15.90;9.07;;;;;;;;;;5055016;28;20040;-76
2022/12/02 07:52:07;;;;;;;20.75;11.60;;;;;;;;;;5056618;28;20049;-76
2022/12/02 07:54:53;;;;;;;27.00;11.43;;;;;;;;;;5058896;28;20049;-77
2022/12/02 07:57:39;;;;;;;14.05;7.68;;;;;;;;;;5055640;28;20040;-74
2022/12/02 08:00:24;;;;;;;15.63;8.32;;;;;;;;;;5055092;28;20057;-75
2022/12/02 08:03:09;;;;;;;13.88;8.15;;;;;;;;;;5055359;28;20049;-74
2022/12/02 08:05:55;;;;;;;17.48;10.18;;;;;;;;;;5054363;28;20029;-74
2022/12/02 08:08:41;;;;;;;11.13;7.43;;;;;;;;;;5055261;28;20041;-75
2022/12/02 08:11:26;;;;;;;17.00;10.77;;;;;;;;;;5054069;28;20045;-77
2022/12/02 08:14:12;;;;;;;15.68;10.73;;;;;;;;;;5047310;28;20040;-76
2022/12/02 08:16:56;;;;;;;31.88;18.02;;;;;;;;;;5054976;28;20045;-76
2022/12/02 08:19:42;;;;;;;41.13;22.45;;;;;;;;;;5054471;28;20040;-78
2022/12/02 08:22:27;;;;;;;18.50;11.27;;;;;;;;;;5060967;28;20044;-75
2022/12/02 08:25:13;;;;;;;24.85;13.77;;;;;;;;;;5054298;28;20041;-76
2022/12/02 08:27:59;;;;;;;19.05;12.23;;;;;;;;;;5054447;28;20506;-76
2022/12/02 08:30:44;;;;;;;16.25;9.85;;;;;;;;;;5060950;28;20057;-75
2022/12/02 08:33:30;;;;;;;15.70;9.88;;;;;;;;;;5054460;28;20041;-76
2022/12/02 08:36:16;;;;;;;11.80;6.70;;;;;;;;;;5062024;28;20049;-75
2022/12/02 08:39:04;;;;;;;16.25;8.82;;;;;;;;;;5054062;28;20045;-75
2022/12/02 08:41:50;;;;;;;13.80;7.15;;;;;;;;;;5053802;28;20041;-75
2022/12/02 08:44:35;;;;;;;11.95;7.20;;;;;;;;;;5060797;28;20045;-77
2022/12/02 08:47:22;;;;;;;24.27;14.75;;;;;;;;;;5053423;28;20486;-79
2022/12/02 08:50:08;;;;;;;13.80;8.82;;;;;;;;;;5060464;28;20053;-77
2022/12/02 08:52:54;;;;;;;17.77;11.40;;;;;;;;;;5053867;28;20049;-79
2022/12/02 08:55:40;;;;;;;23.02;11.02;;;;;;;;;;5053830;28;20041;-76
2022/12/02 08:58:25;;;;;;;25.67;12.77;;;;;;;;;;5053707;28;20478;-79
2022/12/02 09:01:11;;;;;;;15.90;8.85;;;;;;;;;;5045556;28;20049;-80
2022/12/02 09:03:57;;;;;;;18.83;11.40;;;;;;;;;;5060253;28;20390;-76
2022/12/02 09:06:42;;;;;;;20.40;11.30;;;;;;;;;;5053362;28;20048;-77
2022/12/02 09:09:28;;;;;;;19.23;12.00;;;;;;;;;;5053237;28;20406;-77
2022/12/02 09:12:13;;;;;;;8.60;5.57;;;;;;;;;;5053548;28;20041;-80
2022/12/02 09:14:59;;;;;;;28.83;14.00;;;;;;;;;;5060267;28;20037;-79
2022/12/02 09:17:44;;;;;;;6.63;5.22;;;;;;;;;;5059492;28;20045;-79
2022/12/02 09:20:30;;;;;;;9.98;6.55;;;;;;;;;;5060054;28;20410;-75
2022/12/02 09:23:15;;;;;;;12.20;7.13;;;;;;;;;;5053299;28;20048;-77
2022/12/02 09:26:01;;;;;;;11.25;7.13;;;;;;;;;;5059975;28;20421;-77
2022/12/02 09:28:46;;;;;;;13.45;8.40;;;;;;;;;;5053419;28;20049;-78
2022/12/02 09:31:32;;;;;;;18.05;10.45;;;;;;;;;;5053436;28;20053;-79
2022/12/02 09:34:18;;;;;;;13.55;8.23;;;;;;;;;;5053648;28;20046;-77
2022/12/02 09:37:03;;;;;;;10.73;7.57;;;;;;;;;;5053664;28;20037;-79
2022/12/02 09:39:48;;;;;;;11.00;7.13;;;;;;;;;;5059783;28;20049;-78
2022/12/02 09:42:33;;;;;;;8.77;6.15;;;;;;;;;;5058542;28;20041;-75
2022/12/02 09:45:19;;;;;;;9.07;6.70;;;;;;;;;;5060092;28;20045;-76
2022/12/02 09:48:06;;;;;;;12.77;8.13;;;;;;;;;;5059549;28;20041;-79
2022/12/02 09:50:52;;;;;;;13.68;6.70;;;;;;;;;;5059894;28;20401;-79
2022/12/02 09:53:40;;;;;;;13.88;8.73;;;;;;;;;;5053288;28;20049;-78
2022/12/02 09:56:25;;;;;;;10.50;7.13;;;;;;;;;;5053406;28;20049;-77
2022/12/02 09:59:15;;;;;;;26.38;13.68;;;;;;;;;;5060310;28;20041;-77
2022/12/02 10:02:00;;;;;;;19.98;11.10;;;;;;;;;;5053375;28;20044;-77
2022/12/02 10:04:45;;;;;;;40.20;23.38;;;;;;;;;;5053420;28;20045;-79
2022/12/02 10:07:31;;;;;;;26.35;17.60;;;;;;;;;;5062397;28;20049;-78
2022/12/02 10:10:20;;;;;;;12.60;8.25;;;;;;;;;;5061484;28;20037;-76
2022/12/02 10:13:05;;;;;;;20.23;12.15;;;;;;;;;;5053522;28;20049;-79
2022/12/02 10:15:52;;;;;;;11.65;7.10;;;;;;;;;;5053408;28;20049;-78
2022/12/02 10:18:38;;;;;;;11.93;7.13;;;;;;;;;;5056069;28;20064;-79
2022/12/02 10:21:24;;;;;;;10.23;6.63;;;;;;;;;;5067124;28;20033;-79
2022/12/02 10:24:12;;;;;;;19.60;10.88;;;;;;;;;;5076361;28;20052;-79
2022/12/02 10:26:57;;;;;;;12.52;8.70;;;;;;;;;;5052730;28;20045;-78
2022/12/02 10:29:42;;;;;;;20.85;14.30;;;;;;;;;;5062591;28;20037;-79
2022/12/02 10:32:28;;;;;;;20.00;10.20;;;;;;;;;;5063082;28;20049;-79
2022/12/02 10:35:13;;;;;;;11.10;7.50;;;;;;;;;;5056860;28;20037;-79
2022/12/02 10:37:59;;;;;;;12.38;7.82;;;;;;;;;;5063060;28;20044;-77
2022/12/02 10:40:44;;;;;;;12.57;5.72;;;;;;;;;;5063602;28;20041;-79
2022/12/02 10:43:29;;;;;;;13.73;7.60;;;;;;;;;;5058897;28;20398;-79
2022/12/02 10:46:18;;;;;;;13.13;8.63;;;;;;;;;;5056408;28;20041;-78
2022/12/02 10:49:28;;;;;;;9.25;6.50;;;;;;;;;;5056126;28;20040;-78
2022/12/02 10:52:14;;;;;;;15.00;9.55;;;;;;;;;;5056344;28;20045;-75
2022/12/02 10:55:02;;;;;;;17.33;9.35;;;;;;;;;;5056266;28;20045;-77
2022/12/02 10:57:49;;;;;;;12.68;8.85;;;;;;;;;;5056104;28;20040;-79
2022/12/02 11:00:34;;;;;;;11.88;7.80;;;;;;;;;;5055889;28;20037;-77
2022/12/02 11:03:21;;;;;;;9.75;7.07;;;;;;;;;;5055901;28;20045;-79
2022/12/02 11:06:14;;;;;;;9.63;7.32;;;;;;;;;;5047419;28;20486;-79
2022/12/02 11:08:59;;;;;;;13.32;9.25;;;;;;;;;;5055666;28;20045;-76
2022/12/02 11:11:45;;;;;;;9.35;6.63;;;;;;;;;;5055780;28;20041;-76
2022/12/02 11:14:39;;;;;;;9.60;6.75;;;;;;;;;;5055621;28;20041;-76
2022/12/02 11:17:49;;;;;;;10.68;7.47;;;;;;;;;;5055751;28;20037;-79
2022/12/02 11:20:36;;;;;;;11.73;8.20;;;;;;;;;;5055512;28;20040;-76
2022/12/02 11:23:26;;;;;;;14.18;8.35;;;;;;;;;;5055288;28;20045;-78
2022/12/02 11:26:13;;;;;;;13.32;8.93;;;;;;;;;;5062376;28;20048;-79
2022/12/02 11:29:14;;;;;;;14.30;8.90;;;;;;;;;;5062223;28;20040;-79
2022/12/02 11:32:25;;;;;;;16.73;9.88;;;;;;;;;;5055389;28;20045;-76
2022/12/02 11:35:15;;;;;;;12.10;8.10;;;;;;;;;;5055631;28;20048;-78
2022/12/02 11:38:23;;;;;;;12.07;7.28;;;;;;;;;;5055887;28;20049;-79
2022/12/02 11:41:09;;;;;;;13.52;7.82;;;;;;;;;;5054717;28;20485;-76
2022/12/02 11:44:08;;;;;;;15.05;8.52;;;;;;;;;;5056523;28;20049;-75
2022/12/02 11:46:55;;;;;;;11.18;7.13;;;;;;;;;;5055198;28;20045;-78
2022/12/02 11:49:40;;;;;;;18.05;11.32;;;;;;;;;;5055557;28;20044;-78
2022/12/02 11:52:28;;;;;;;14.02;7.18;;;;;;;;;;5055067;28;20041;-77
2022/12/02 11:55:21;;;;;;;12.45;6.90;;;;;;;;;;5055352;28;20037;-76
2022/12/02 11:58:18;;;;;;;11.43;7.55;;;;;;;;;;5054762;28;20045;-77
2022/12/02 12:01:17;;;;;;;17.25;9.00;;;;;;;;;;5055466;28;20045;-79
2022/12/02 12:04:02;;;;;;;13.50;7.43;;;;;;;;;;5061625;28;20494;-77
2022/12/02 12:06:56;;;;;;;14.85;9.18;;;;;;;;;;5055407;28;20156;-79
2022/12/02 12:09:54;;;;;;;12.38;7.97;;;;;;;;;;5056405;28;20045;-78
2022/12/02 12:13:12;;;;;;;13.70;8.13;;;;;;;;;;5054563;28;20037;-80
2022/12/02 12:16:00;;;;;;;14.00;8.05;;;;;;;;;;5054550;28;20490;-76
2022/12/02 12:18:48;;;;;;;16.30;9.00;;;;;;;;;;5054246;28;20493;-79
2022/12/02 12:21:34;;;;;;;13.52;7.88;;;;;;;;;;5054706;28;20075;-77
2022/12/02 12:24:21;;;;;;;14.18;8.43;;;;;;;;;;5075877;28;20049;-76
2022/12/02 12:27:06;;;;;;;15.07;9.10;;;;;;;;;;5039437;28;20045;-78
2022/12/02 12:29:51;;;;;;;12.13;7.45;;;;;;;;;;5054438;28;20049;-77
2022/12/02 12:32:37;;;;;;;31.08;15.57;;;;;;;;;;5045803;28;20045;-79
2022/12/02 12:35:22;;;;;;;31.85;16.20;;;;;;;;;;5054171;28;20406;-77
2022/12/02 12:38:07;;;;;;;16.45;9.55;;;;;;;;;;5054206;28;20053;-80
2022/12/02 12:40:53;;;;;;;28.20;13.80;;;;;;;;;;5060393;28;20040;-78
2022/12/02 12:43:38;;;;;;;15.38;9.00;;;;;;;;;;5053719;28;20052;-80
2022/12/02 12:46:23;;;;;;;15.60;10.15;;;;;;;;;;5061161;28;20041;-80
2022/12/02 12:49:08;;;;;;;18.27;10.50;;;;;;;;;;5060220;28;20045;-80
2022/12/02 12:51:55;;;;;;;18.25;10.23;;;;;;;;;;5053641;28;20049;-78
2022/12/02 12:54:41;;;;;;;15.05;9.63;;;;;;;;;;5059681;28;20045;-80
2022/12/02 12:57:26;;;;;;;17.38;9.73;;;;;;;;;;5053902;28;20053;-78
2022/12/02 13:00:12;;;;;;;14.88;8.43;;;;;;;;;;5053920;28;20045;-80
2022/12/02 13:02:57;;;;;;;16.92;9.45;;;;;;;;;;5060405;28;20044;-77
2022/12/02 13:05:43;;;;;;;20.35;11.00;;;;;;;;;;5053965;28;20471;-79
2022/12/02 13:08:29;;;;;;;16.15;10.48;;;;;;;;;;5052707;28;20422;-79
2022/12/02 13:11:14;;;;;;;15.40;9.45;;;;;;;;;;5060299;28;20045;-76
2022/12/02 13:14:00;;;;;;;15.38;9.63;;;;;;;;;;5053766;28;20506;-77
2022/12/02 13:16:45;;;;;;;17.40;10.15;;;;;;;;;;5053674;28;20390;-76
2022/12/02 13:19:31;;;;;;;18.23;9.65;;;;;;;;;;5053282;28;20049;-79
2022/12/02 13:22:16;;;;;;;16.48;9.88;;;;;;;;;;5060013;28;20041;-79
2022/12/02 13:25:02;;;;;;;12.90;8.38;;;;;;;;;;5059456;28;20036;-79
2022/12/02 13:27:48;;;;;;;19.20;10.30;;;;;;;;;;5053197;28;20052;-79
2022/12/02 13:30:33;;;;;;;20.38;10.45;;;;;;;;;;5053456;28;20052;-77
2022/12/02 13:33:19;;;;;;;21.13;11.25;;;;;;;;;;5053364;28;20057;-78
2022/12/02 13:36:05;;;;;;;15.15;8.52;;;;;;;;;;5059949;28;20057;-78
2022/12/02 13:38:50;;;;;;;19.83;9.30;;;;;;;;;;5059977;28;20045;-78
2022/12/02 13:41:37;;;;;;;16.08;9.48;;;;;;;;;;5059933;28;20052;-77
2022/12/02 13:44:22;;;;;;;15.88;9.68;;;;;;;;;;5052578;28;20048;-75
2022/12/02 13:47:08;;;;;;;11.63;7.97;;;;;;;;;;5053411;28;20045;-77
2022/12/02 13:49:53;;;;;;;14.13;8.73;;;;;;;;;;5055057;28;20045;-77
2022/12/02 13:52:39;;;;;;;13.48;8.95;;;;;;;;;;5056186;28;20045;-80
2022/12/02 13:55:25;;;;;;;17.23;10.98;;;;;;;;;;5053815;28;20045;-77
2022/12/02 13:58:10;;;;;;;12.65;8.18;;;;;;;;;;5052787;28;20049;-80
2022/12/02 14:00:56;;;;;;;15.98;7.93;;;;;;;;;;5053084;28;20045;-78
2022/12/02 14:03:41;;;;;;;38.80;20.02;;;;;;;;;;5061124;28;20486;-79
2022/12/02 14:06:27;;;;;;;18.85;10.80;;;;;;;;;;5063107;28;20045;-79
2022/12/02 14:09:13;;;;;;;69.55;36.13;;;;;;;;;;5056579;28;20041;-82
2022/12/02 14:11:58;;;;;;;77.07;44.97;;;;;;;;;;5056863;28;20044;-78
2022/12/02 14:14:44;;;;;;;32.30;21.55;;;;;;;;;;5056575;28;20041;-76
2022/12/02 14:17:29;;;;;;;44.35;21.63;;;;;;;;;;5056614;28;20045;-78
2022/12/02 14:20:15;;;;;;;21.75;11.85;;;;;;;;;;5056495;28;20037;-80
2022/12/02 14:23:00;;;;;;;24.02;14.00;;;;;;;;;;5063209;28;20045;-80
2022/12/02 14:25:46;;;;;;;30.30;14.43;;;;;;;;;;5056833;28;20037;-79
2022/12/02 14:28:32;;;;;;;26.15;13.30;;;;;;;;;;5055993;28;20398;-78
2022/12/02 14:31:17;;;;;;;23.20;12.32;;;;;;;;;;5055887;28;20041;-81
2022/12/02 14:34:03;;;;;;;12.30;8.15;;;;;;;;;;5056745;28;20045;-77
2022/12/02 14:36:48;;;;;;;21.33;11.18;;;;;;;;;;5077421;28;20402;-79
2022/12/02 14:39:33;;;;;;;20.15;10.00;;;;;;;;;;5056100;28;20045;-77
2022/12/02 14:42:19;;;;;;;21.80;11.55;;;;;;;;;;5055980;28;20041;-77
2022/12/02 14:45:06;;;;;;;27.73;16.48;;;;;;;;;;5056020;28;20052;-76
2022/12/02 14:47:51;;;;;;;11.38;7.15;;;;;;;;;;5055980;28;20414;-78
2022/12/02 14:50:37;;;;;;;27.48;14.13;;;;;;;;;;5055998;28;20394;-76
2022/12/02 14:53:23;;;;;;;20.58;12.32;;;;;;;;;;5062908;28;20045;-78
2022/12/02 14:56:08;;;;;;;16.88;11.07;;;;;;;;;;5056704;28;20053;-76
2022/12/02 14:58:54;;;;;;;27.60;16.15;;;;;;;;;;5058244;28;20487;-76
2022/12/02 15:01:40;;;;;;;18.65;11.13;;;;;;;;;;5071635;28;20045;-80
2022/12/02 15:04:27;;;;;;;19.80;9.68;;;;;;;;;;5069585;28;20041;-76
2022/12/02 15:07:12;;;;;;;25.60;10.90;;;;;;;;;;5055528;28;20037;-77
2022/12/02 15:09:58;;;;;;;31.70;15.48;;;;;;;;;;5062538;28;20049;-78
2022/12/02 15:12:43;;;;;;;26.17;14.52;;;;;;;;;;5055848;28;20045;-80
2022/12/02 15:15:29;;;;;;;17.15;10.10;;;;;;;;;;5062390;28;20041;-79
2022/12/02 15:18:15;;;;;;;24.52;14.80;;;;;;;;;;5055599;28;20048;-77
2022/12/02 15:21:01;;;;;;;32.03;18.17;;;;;;;;;;5055462;28;20045;-79
2022/12/02 15:23:46;;;;;;;31.75;16.75;;;;;;;;;;5062408;28;20482;-78
2022/12/02 15:26:32;;;;;;;32.63;17.30;;;;;;;;;;5055434;28;20045;-78
2022/12/02 15:29:19;;;;;;;34.42;18.25;;;;;;;;;;5061453;28;20049;-78
2022/12/02 15:32:04;;;;;;;25.23;14.38;;;;;;;;;;5055046;28;20045;-77
2022/12/02 15:34:50;;;;;;;23.50;14.43;;;;;;;;;;5054932;28;20049;-77
2022/12/02 15:37:35;;;;;;;34.38;18.77;;;;;;;;;;5055587;28;20045;-79
2022/12/02 15:40:21;;;;;;;31.48;16.13;;;;;;;;;;5055172;28;20041;-78
2022/12/02 15:43:06;;;;;;;23.42;12.02;;;;;;;;;;5054228;28;20045;-77
2022/12/02 15:45:52;;;;;;;32.75;19.58;;;;;;;;;;5054925;28;20041;-80
2022/12/02 15:48:38;;;;;;;40.05;20.85;;;;;;;;;;5054669;28;20045;-78
2022/12/02 15:51:23;;;;;;;28.60;15.20;;;;;;;;;;5054824;28;20398;-75
2022/12/02 15:54:09;;;;;;;28.73;15.90;;;;;;;;;;5061390;28;20045;-78
2022/12/02 15:56:57;;;;;;;29.60;15.95;;;;;;;;;;5039699;28;20044;-77
2022/12/02 15:59:43;;;;;;;30.85;17.42;;;;;;;;;;5057323;28;20037;-75
2022/12/02 16:02:29;;;;;;;53.45;31.02;;;;;;;;;;5054593;28;20482;-78
2022/12/02 16:05:14;;;;;;;70.10;33.63;;;;;;;;;;5054686;28;20057;-78
2022/12/02 16:08:00;;;;;;;63.15;32.15;;;;;;;;;;5054415;28;20053;-78
2022/12/02 16:10:45;;;;;;;54.92;33.88;;;;;;;;;;5054397;28;20041;-76
2022/12/02 16:13:31;;;;;;;72.85;40.92;;;;;;;;;;5054515;28;20041;-78
2022/12/02 16:16:17;;;;;;;68.85;41.13;;;;;;;;;;5054629;28;20044;-77
2022/12/02 16:19:02;;;;;;;42.42;25.63;;;;;;;;;;5060979;28;20045;-79
2022/12/02 16:21:48;;;;;;;69.38;39.78;;;;;;;;;;5054695;28;20479;-78
2022/12/02 16:24:33;;;;;;;44.03;25.65;;;;;;;;;;5061321;28;20049;-76
2022/12/02 16:27:19;;;;;;;64.47;38.25;;;;;;;;;;5053578;28;20049;-79
2022/12/02 16:30:05;;;;;;;48.47;26.63;;;;;;;;;;5061144;28;20052;-76
2022/12/02 16:32:50;;;;;;;62.55;31.40;;;;;;;;;;5054141;28;20493;-80